Time;durP1;ratioP1;P1;durP2;ratioP2;P2;SDS_P1;SDS_P2;PMS_P1;PMS_P2;Temp;Humidity;BMP_temperature;BMP_pressure;BME280_temperature;BME280_humidity;BME280_pressure;Samples;Min_cycle;Max_cycle;Signal;HPM_P1;HPM_P2
2021/07/13 05:38:19;0.00;0.00;0.62;0.00;0.00;0.62;10.30;9.27;;;29.40;41.40;;;;;;2069479;63;54882;-61
2021/07/13 05:40:45;0.00;0.00;0.62;0.00;0.00;0.62;9.47;8.77;;;29.40;41.70;;;;;;1985717;69;20448;-65
2021/07/13 05:43:11;0.00;0.00;0.62;0.00;0.00;0.62;10.40;9.53;;;29.40;41.60;;;;;;1975030;70;20661;-62
2021/07/13 05:45:37;0.00;0.00;0.62;0.00;0.00;0.62;10.50;9.50;;;29.40;41.60;;;;;;1975400;70;20429;-60
2021/07/13 05:48:03;0.00;0.00;0.62;0.00;0.00;0.62;11.07;9.70;;;29.40;41.60;;;;;;1975442;70;20748;-63
2021/07/13 05:50:29;0.00;0.00;0.62;0.00;0.00;0.62;10.70;9.90;;;29.40;41.60;;;;;;1975159;70;20421;-61
2021/07/13 05:52:57;0.00;0.00;0.62;0.00;0.00;0.62;10.60;9.70;;;29.40;41.60;;;;;;1975426;70;20436;-62
2021/07/13 05:55:23;0.00;0.00;0.62;0.00;0.00;0.62;11.77;10.40;;;29.40;41.60;;;;;;1975304;70;20730;-60
2021/07/13 05:57:49;0.00;0.00;0.62;0.00;0.00;0.62;11.37;10.37;;;29.40;41.60;;;;;;1975038;70;20452;-63
2021/07/13 06:00:15;0.00;0.00;0.62;0.00;0.00;0.62;10.87;9.43;;;29.40;41.60;;;;;;1975369;70;20424;-62
2021/07/13 06:02:42;0.00;0.00;0.62;0.00;0.00;0.62;11.10;10.20;;;29.40;41.60;;;;;;1975389;70;20782;-66
2021/07/13 06:05:09;0.00;0.00;0.62;0.00;0.00;0.62;13.87;10.50;;;29.40;41.60;;;;;;1975030;70;20479;-65
2021/07/13 06:07:35;0.00;0.00;0.62;0.00;0.00;0.62;11.30;10.30;;;29.30;41.70;;;;;;1975305;70;20601;-61
2021/07/13 06:10:01;0.00;0.00;0.62;0.00;0.00;0.62;10.13;9.23;;;29.30;41.70;;;;;;1975419;70;20429;-64
2021/07/13 06:12:27;0.00;0.00;0.62;0.00;0.00;0.62;9.50;8.80;;;29.30;41.70;;;;;;1975182;70;20428;-63
2021/07/13 06:14:53;0.00;0.00;0.62;0.00;0.00;0.62;11.03;9.93;;;29.30;41.80;;;;;;1975297;70;20652;-66
2021/07/13 06:17:19;0.00;0.00;0.62;0.00;0.00;0.62;9.83;8.97;;;29.30;41.80;;;;;;1975288;70;20441;-62
2021/07/13 06:19:45;0.00;0.00;0.62;0.00;0.00;0.62;10.33;9.53;;;29.30;41.80;;;;;;1975375;70;20769;-65
2021/07/13 06:22:11;0.00;0.00;0.62;0.00;0.00;0.62;9.93;8.93;;;29.30;41.80;;;;;;1975148;70;20499;-64
2021/07/13 06:24:37;0.00;0.00;0.62;0.00;0.00;0.62;9.43;8.70;;;29.30;41.80;;;;;;1975432;70;20421;-62
2021/07/13 06:27:03;0.00;0.00;0.62;0.00;0.00;0.62;10.57;9.77;;;29.40;41.80;;;;;;1975227;70;20498;-63
2021/07/13 06:29:29;0.00;0.00;0.62;0.00;0.00;0.62;10.10;9.40;;;29.40;41.80;;;;;;1973175;70;20728;-63
2021/07/13 06:31:55;0.00;0.00;0.62;0.00;0.00;0.62;10.07;9.33;;;29.40;41.70;;;;;;1972980;70;20417;-63
2021/07/13 06:34:21;0.00;0.00;0.62;0.00;0.00;0.62;11.97;9.27;;;29.40;41.70;;;;;;1973413;70;20437;-61
2021/07/13 06:36:47;0.00;0.00;0.62;0.00;0.00;0.62;9.73;8.93;;;29.50;41.80;;;;;;1980997;66;20657;-62
2021/07/13 06:39:14;0.00;0.00;0.62;0.00;0.00;0.62;10.53;9.63;;;29.50;41.70;;;;;;2126357;64;20420;-63
2021/07/13 06:41:40;0.00;0.00;0.62;0.00;0.00;0.62;10.03;9.33;;;29.50;41.70;;;;;;2135257;65;20605;-62
2021/07/13 06:44:06;0.00;0.00;0.62;0.00;0.00;0.62;9.60;8.90;;;29.50;41.60;;;;;;2135350;65;20370;-64
2021/07/13 06:46:33;0.00;0.00;0.62;0.00;0.00;0.62;9.17;8.50;;;29.50;41.60;;;;;;2135113;65;20385;-65
2021/07/13 06:49:01;0.00;0.00;0.62;0.00;0.00;0.62;10.00;9.20;;;29.60;41.60;;;;;;2135382;65;20460;-64
2021/07/13 06:51:27;0.00;0.00;0.62;0.00;0.00;0.62;9.23;8.57;;;29.60;41.40;;;;;;2135154;65;20381;-63
2021/07/13 06:53:53;0.00;0.00;0.62;0.00;0.00;0.62;9.10;8.30;;;29.60;41.30;;;;;;2135310;65;20392;-63
2021/07/13 06:56:19;0.00;0.00;0.62;0.00;0.00;0.62;8.60;7.90;;;29.60;41.30;;;;;;2135336;65;20467;-64
2021/07/13 06:58:45;0.00;0.00;0.62;0.00;0.00;0.62;9.43;8.63;;;29.60;41.20;;;;;;2134931;65;20479;-63
2021/07/13 07:01:11;0.00;0.00;0.62;0.00;0.00;0.62;8.70;8.00;;;29.60;41.10;;;;;;2135339;65;20361;-66
2021/07/13 07:03:37;0.00;0.00;0.62;0.00;0.00;0.62;10.00;9.07;;;29.60;41.00;;;;;;2135799;65;20378;-63
2021/07/13 07:06:03;0.00;0.00;0.62;0.00;0.00;0.62;9.33;8.47;;;29.60;41.00;;;;;;2135349;65;20374;-62
2021/07/13 07:08:29;0.00;0.00;0.62;0.00;0.00;0.62;10.37;8.80;;;29.70;41.00;;;;;;2135449;65;20423;-66
2021/07/13 07:10:55;0.00;0.00;0.62;0.00;0.00;0.62;9.80;8.60;;;29.60;40.90;;;;;;2135755;65;20378;-60
2021/07/13 07:13:20;0.00;0.00;0.62;0.00;0.00;0.62;9.13;8.13;;;29.70;40.90;;;;;;2135445;65;20474;-61
2021/07/13 07:15:46;0.00;0.00;0.62;0.00;0.00;0.62;8.67;7.57;;;29.70;41.00;;;;;;2135417;65;20735;-64
2021/07/13 07:18:12;0.00;0.00;0.62;0.00;0.00;0.62;7.57;6.93;;;29.70;40.90;;;;;;2135681;65;20758;-65
2021/07/13 07:20:39;0.00;0.00;0.62;0.00;0.00;0.62;11.50;7.60;;;29.70;40.90;;;;;;2135525;65;20365;-64
2021/07/13 07:23:07;0.00;0.00;0.62;0.00;0.00;0.62;8.90;8.00;;;29.70;40.80;;;;;;2135358;65;20414;-61
2021/07/13 07:25:33;0.00;0.00;0.62;0.00;0.00;0.62;8.10;7.30;;;29.70;40.80;;;;;;2135457;65;20389;-60
2021/07/13 07:27:59;0.00;0.00;0.62;0.00;0.00;0.62;8.50;7.33;;;29.70;40.70;;;;;;2135302;65;20402;-64
2021/07/13 07:30:25;0.00;0.00;0.62;0.00;0.00;0.62;8.90;7.97;;;29.70;40.70;;;;;;2135412;65;20381;-63
2021/07/13 07:32:51;0.00;0.00;0.62;0.00;0.00;0.62;11.10;7.97;;;29.70;40.60;;;;;;2135615;65;20370;-63
2021/07/13 07:35:17;0.00;0.00;0.62;0.00;0.00;0.62;11.17;8.77;;;29.70;40.60;;;;;;2135439;65;20598;-62
2021/07/13 07:37:43;0.00;0.00;0.62;0.00;0.00;0.62;8.20;7.43;;;29.80;40.70;;;;;;2140322;64;32419;-62
2021/07/13 07:40:09;0.00;0.00;0.62;0.00;0.00;0.62;9.87;8.30;;;29.70;40.50;;;;;;2191201;63;20684;-65
2021/07/13 07:42:35;0.00;0.00;0.62;0.00;0.00;0.62;8.77;7.77;;;29.70;40.50;;;;;;2186034;63;20698;-63
2021/07/13 07:45:01;0.00;0.00;0.62;0.00;0.00;0.62;10.60;8.07;;;29.80;40.50;;;;;;2185904;63;20710;-62
2021/07/13 07:47:27;0.00;0.00;0.62;0.00;0.00;0.62;11.83;8.20;;;29.80;40.50;;;;;;2186214;63;20382;-63
2021/07/13 07:49:53;0.00;0.00;0.62;0.00;0.00;0.62;8.83;6.90;;;29.80;40.50;;;;;;2187067;63;20361;-64
2021/07/13 07:52:19;0.00;0.00;0.62;0.00;0.00;0.62;12.03;7.30;;;29.80;40.50;;;;;;2185898;63;20441;-62
2021/07/13 07:54:45;0.00;0.00;0.62;0.00;0.00;0.62;8.53;7.13;;;29.80;40.40;;;;;;2186051;63;20689;-63
2021/07/13 07:57:11;0.00;0.00;0.62;0.00;0.00;0.62;8.50;7.10;;;29.80;40.40;;;;;;2186009;63;20432;-61
2021/07/13 07:59:37;0.00;0.00;0.62;0.00;0.00;0.62;8.83;6.43;;;29.80;40.40;;;;;;2189111;63;20460;-62
2021/07/13 08:02:04;0.00;0.00;0.62;0.00;0.00;0.62;7.67;6.37;;;29.80;40.30;;;;;;2185982;63;20429;-62
2021/07/13 08:04:30;0.00;0.00;0.62;0.00;0.00;0.62;9.13;6.57;;;29.80;40.40;;;;;;2186051;63;20365;-63
2021/07/13 08:06:56;0.00;0.00;0.62;0.00;0.00;0.62;7.00;6.30;;;29.80;40.30;;;;;;2186046;63;20385;-61
2021/07/13 08:09:22;0.00;0.00;0.62;0.00;0.00;0.62;11.17;6.83;;;29.80;40.30;;;;;;2185912;63;20695;-61
2021/07/13 08:11:48;0.00;0.00;0.62;0.00;0.00;0.62;11.60;6.40;;;29.80;40.30;;;;;;2185890;63;20366;-60
2021/07/13 08:14:14;0.00;0.00;0.62;0.00;0.00;0.62;10.10;5.80;;;29.80;40.20;;;;;;2186166;63;20389;-64
2021/07/13 08:16:43;0.00;0.00;0.62;0.00;0.00;0.62;9.23;6.60;;;29.80;40.00;;;;;;2185783;63;20374;-63
2021/07/13 08:19:09;0.00;0.00;0.62;0.00;0.00;0.62;8.43;5.90;;;29.80;40.00;;;;;;2187330;63;20473;-64
2021/07/13 08:21:39;0.00;0.00;0.62;0.00;0.00;0.62;11.27;6.10;;;29.80;40.00;;;;;;2187961;63;20362;-63
2021/07/13 08:24:11;0.00;0.00;0.62;0.00;0.00;0.62;6.33;5.60;;;29.80;39.90;;;;;;2185884;63;20366;-63
2021/07/13 08:26:37;0.00;0.00;0.62;0.00;0.00;0.62;9.47;5.40;;;29.80;39.80;;;;;;2185750;63;20389;-64
2021/07/13 08:29:03;0.00;0.00;0.62;0.00;0.00;0.62;8.97;5.60;;;29.80;39.80;;;;;;2186138;63;20362;-65
2021/07/13 08:31:29;0.00;0.00;0.62;0.00;0.00;0.62;10.00;6.13;;;29.80;39.80;;;;;;2185848;63;20365;-63
2021/07/13 08:33:55;0.00;0.00;0.62;0.00;0.00;0.62;10.20;5.30;;;29.90;39.80;;;;;;2185887;63;20690;-63
2021/07/13 08:36:21;0.00;0.00;0.62;0.00;0.00;0.62;6.73;5.53;;;29.90;39.70;;;;;;2186141;63;20389;-63
2021/07/13 08:38:49;0.00;0.00;0.62;0.00;0.00;0.62;8.30;6.10;;;29.90;39.70;;;;;;2199045;62;20729;-62
2021/07/13 08:41:20;0.00;0.00;0.62;0.00;0.00;0.62;7.03;6.33;;;29.90;40.50;;;;;;2197445;63;20392;-65
2021/07/13 08:43:47;0.00;0.00;0.62;0.00;0.00;0.62;10.20;6.57;;;29.90;39.70;;;;;;2199364;63;20457;-62
2021/07/13 08:46:14;0.00;0.00;0.62;0.00;0.00;0.62;5.97;5.47;;;29.90;39.70;;;;;;2198929;63;20389;-63
2021/07/13 08:48:41;0.00;0.00;0.62;0.00;0.00;0.62;5.80;5.27;;;29.90;39.70;;;;;;2198982;63;20372;-62
2021/07/13 08:51:07;0.00;0.00;0.62;0.00;0.00;0.62;5.43;4.93;;;29.90;39.60;;;;;;2199178;63;20365;-62
2021/07/13 08:53:34;0.00;0.00;0.62;0.00;0.00;0.62;9.33;6.07;;;29.90;39.60;;;;;;2198900;63;20596;-62
2021/07/13 08:56:02;0.00;0.00;0.62;0.00;0.00;0.62;7.17;5.97;;;29.90;39.70;;;;;;2198870;63;20373;-65
2021/07/13 08:58:28;0.00;0.00;0.62;0.00;0.00;0.62;6.70;6.10;;;29.90;39.70;;;;;;2199332;63;20424;-65
2021/07/13 09:00:56;0.00;0.00;0.62;0.00;0.00;0.62;7.57;5.27;;;29.90;39.70;;;;;;2198864;63;20369;-63
2021/07/13 09:03:22;0.00;0.00;0.62;0.00;0.00;0.62;8.53;5.23;;;30.00;39.70;;;;;;2198857;63;20376;-62
2021/07/13 09:05:52;0.00;0.00;0.62;0.00;0.00;0.62;5.33;4.83;;;30.00;39.70;;;;;;2199118;63;20377;-65
2021/07/13 09:08:22;0.00;0.00;0.62;0.00;0.00;0.62;5.53;5.00;;;30.00;39.60;;;;;;2198810;63;20376;-63
2021/07/13 09:11:10;0.00;0.00;0.62;0.00;0.00;0.62;6.17;4.60;;;30.00;39.60;;;;;;2198877;63;20369;-66
2021/07/13 09:13:41;0.00;0.00;0.62;0.00;0.00;0.62;8.40;5.90;;;30.00;39.60;;;;;;2198844;63;20373;-68
2021/07/13 09:16:11;0.00;0.00;0.62;0.00;0.00;0.62;8.40;5.10;;;30.00;39.50;;;;;;2198793;63;20362;-65
2021/07/13 09:18:39;0.00;0.00;0.62;0.00;0.00;0.62;6.43;4.67;;;30.10;39.50;;;;;;2198936;63;20480;-64
2021/07/13 09:21:23;0.00;0.00;0.62;0.00;0.00;0.62;5.90;4.20;;;30.10;39.40;;;;;;2198969;63;20365;-64
2021/07/13 09:24:12;0.00;0.00;0.62;0.00;0.00;0.62;12.70;4.93;;;30.10;39.40;;;;;;2198760;63;20384;-64
2021/07/13 09:26:49;0.00;0.00;0.62;0.00;0.00;0.62;7.43;4.60;;;30.10;39.30;;;;;;2198937;63;20459;-65
2021/07/13 09:29:35;0.00;0.00;0.62;0.00;0.00;0.62;10.20;4.73;;;30.10;39.10;;;;;;2198810;63;20384;-63
2021/07/13 09:32:31;0.00;0.00;0.62;0.00;0.00;0.62;10.37;4.87;;;30.10;39.10;;;;;;2199160;63;20376;-64
2021/07/13 09:35:01;0.00;0.00;0.62;0.00;0.00;0.62;5.47;4.07;;;30.10;38.90;;;;;;2199034;63;20908;-63
2021/07/13 09:37:29;0.00;0.00;0.62;0.00;0.00;0.62;4.63;3.97;;;30.20;38.80;;;;;;2201377;62;20410;-62
2021/07/13 09:40:04;0.00;0.00;0.62;0.00;0.00;0.62;4.37;3.97;;;30.20;38.70;;;;;;2206498;63;20382;-66
2021/07/13 09:42:34;0.00;0.00;0.62;0.00;0.00;0.62;4.97;4.10;;;30.10;38.70;;;;;;2206735;63;20367;-64
2021/07/13 09:45:24;0.00;0.00;0.62;0.00;0.00;0.62;7.47;4.37;;;30.20;38.60;;;;;;2206283;63;20375;-63
2021/07/13 09:47:52;0.00;0.00;0.62;0.00;0.00;0.62;4.70;4.17;;;30.20;38.60;;;;;;2206476;63;20387;-62
2021/07/13 09:50:43;0.00;0.00;0.62;0.00;0.00;0.62;4.40;3.80;;;30.20;38.30;;;;;;2209396;62;20371;-62
2021/07/13 09:53:15;0.00;0.00;0.62;0.00;0.00;0.62;5.13;4.37;;;30.20;38.40;;;;;;2208941;62;20433;-63
2021/07/13 09:55:42;0.00;0.00;0.62;0.00;0.00;0.62;4.50;3.20;;;30.20;38.30;;;;;;2206357;63;20375;-61
2021/07/13 09:58:19;0.00;0.00;0.62;0.00;0.00;0.62;4.43;4.03;;;30.20;38.30;;;;;;2206381;63;20482;-61
2021/07/13 10:00:49;0.00;0.00;0.62;0.00;0.00;0.62;4.80;4.40;;;30.20;38.30;;;;;;2206599;63;20374;-61
2021/07/13 10:03:17;0.00;0.00;0.62;0.00;0.00;0.62;4.60;3.83;;;30.30;38.40;;;;;;2206399;63;20599;-64
2021/07/13 10:05:47;0.00;0.00;0.62;0.00;0.00;0.62;4.50;4.10;;;30.30;38.30;;;;;;2206874;63;20367;-65
2021/07/13 10:08:14;0.00;0.00;0.62;0.00;0.00;0.62;6.17;3.97;;;30.30;38.90;;;;;;2207161;63;20723;-65
2021/07/13 10:10:42;0.00;0.00;0.62;0.00;0.00;0.62;4.73;4.33;;;30.30;38.30;;;;;;2207065;63;20377;-62
2021/07/13 10:13:11;0.00;0.00;0.62;0.00;0.00;0.62;5.17;3.73;;;30.30;38.20;;;;;;2207106;63;20359;-61
2021/07/13 10:15:39;0.00;0.00;0.62;0.00;0.00;0.62;4.80;4.40;;;30.30;38.30;;;;;;2209814;62;20410;-65
2021/07/13 10:18:06;0.00;0.00;0.62;0.00;0.00;0.62;4.27;3.87;;;30.30;37.70;;;;;;2212870;62;20748;-61
2021/07/13 10:20:34;0.00;0.00;0.62;0.00;0.00;0.62;4.30;4.00;;;30.30;37.60;;;;;;2206874;63;20425;-63
2021/07/13 10:23:04;0.00;0.00;0.62;0.00;0.00;0.62;5.47;4.97;;;30.30;37.60;;;;;;2207270;63;20368;-64
2021/07/13 10:25:38;0.00;0.00;0.62;0.00;0.00;0.62;4.87;4.47;;;30.30;37.70;;;;;;2206912;63;20586;-61
2021/07/13 10:28:06;0.00;0.00;0.62;0.00;0.00;0.62;4.53;4.13;;;30.30;37.60;;;;;;2207005;63;20719;-63
2021/07/13 10:30:39;0.00;0.00;0.62;0.00;0.00;0.62;4.80;4.33;;;30.30;37.60;;;;;;2207224;63;20367;-61
2021/07/13 10:33:35;0.00;0.00;0.62;0.00;0.00;0.62;5.33;4.83;;;30.30;37.50;;;;;;2207060;63;20382;-62
2021/07/13 10:36:31;0.00;0.00;0.62;0.00;0.00;0.62;7.60;6.90;;;30.30;37.40;;;;;;2207528;63;20363;-67
2021/07/13 10:39:27;0.00;0.00;0.62;0.00;0.00;0.62;5.90;5.40;;;30.30;37.50;;;;;;2216668;62;20410;-66
2021/07/13 10:41:54;0.00;0.00;0.62;0.00;0.00;0.62;6.50;5.90;;;30.30;37.60;;;;;;2218826;62;20368;-61
2021/07/13 10:44:41;0.00;0.00;0.62;0.00;0.00;0.62;6.50;5.90;;;30.30;37.60;;;;;;2218423;62;20406;-63
2021/07/13 10:47:24;0.00;0.00;0.62;0.00;0.00;0.62;5.47;5.00;;;30.30;37.70;;;;;;2218481;62;20387;-65
2021/07/13 10:50:48;0.00;0.00;0.62;0.00;0.00;0.62;6.37;4.50;;;30.30;37.70;;;;;;2218460;62;20365;-64
2021/07/13 10:53:30;0.00;0.00;0.62;0.00;0.00;0.62;7.87;5.73;;;30.30;37.90;;;;;;2218772;62;20357;-63
2021/07/13 10:56:12;0.00;0.00;0.62;0.00;0.00;0.62;6.03;5.50;;;30.30;37.70;;;;;;2221093;62;20361;-60
2021/07/13 10:58:51;0.00;0.00;0.62;0.00;0.00;0.62;6.00;5.40;;;30.30;37.70;;;;;;2218361;62;20436;-62
2021/07/13 11:01:33;0.00;0.00;0.62;0.00;0.00;0.62;4.87;4.47;;;30.40;37.60;;;;;;2218405;62;20365;-62
2021/07/13 11:04:24;0.00;0.00;0.62;0.00;0.00;0.62;6.03;5.53;;;30.40;37.60;;;;;;2218845;62;20381;-66
2021/07/13 11:06:57;0.00;0.00;0.62;0.00;0.00;0.62;6.20;5.70;;;30.40;37.60;;;;;;2218165;62;20744;-62
2021/07/13 11:09:38;0.00;0.00;0.62;0.00;0.00;0.62;5.93;5.43;;;30.40;37.60;;;;;;2218458;62;20368;-64
2021/07/13 11:12:17;0.00;0.00;0.62;0.00;0.00;0.62;6.43;5.90;;;30.40;37.60;;;;;;2218474;62;20374;-64
2021/07/13 11:14:59;0.00;0.00;0.62;0.00;0.00;0.62;6.77;6.13;;;30.50;37.60;;;;;;2218466;62;20368;-65
2021/07/13 11:17:28;0.00;0.00;0.62;0.00;0.00;0.62;6.97;6.47;;;30.50;37.40;;;;;;2218465;62;20585;-63
2021/07/13 11:20:10;0.00;0.00;0.62;0.00;0.00;0.62;6.67;6.07;;;30.50;37.30;;;;;;2218614;62;20404;-66
2021/07/13 11:22:39;0.00;0.00;0.62;0.00;0.00;0.62;6.80;6.20;;;30.50;37.20;;;;;;2218521;62;20369;-65
2021/07/13 11:25:19;0.00;0.00;0.62;0.00;0.00;0.62;6.90;6.30;;;30.50;37.30;;;;;;2218321;62;20373;-64
2021/07/13 11:27:46;0.00;0.00;0.62;0.00;0.00;0.62;6.43;5.90;;;30.50;37.30;;;;;;2218130;62;20607;-64
2021/07/13 11:30:16;0.00;0.00;0.62;0.00;0.00;0.62;6.33;5.83;;;30.60;37.40;;;;;;2221453;62;20369;-62
2021/07/13 11:32:42;0.00;0.00;0.62;0.00;0.00;0.62;6.90;6.30;;;30.60;37.40;;;;;;2218433;62;20398;-64
2021/07/13 11:35:15;0.00;0.00;0.62;0.00;0.00;0.62;6.60;6.10;;;30.60;37.30;;;;;;2218001;62;20371;-65
2021/07/13 11:37:42;0.00;0.00;0.62;0.00;0.00;0.62;7.77;7.17;;;30.60;37.20;;;;;;2220342;62;20392;-66
2021/07/13 11:40:10;0.00;0.00;0.62;0.00;0.00;0.62;7.47;6.87;;;30.70;37.30;;;;;;2218484;62;20421;-64
2021/07/13 11:42:37;0.00;0.00;0.62;0.00;0.00;0.62;7.13;6.53;;;30.70;37.20;;;;;;2218214;62;20393;-61
2021/07/13 11:45:05;0.00;0.00;0.62;0.00;0.00;0.62;7.50;6.90;;;30.70;37.30;;;;;;2218655;62;20368;-69
2021/07/13 11:47:32;0.00;0.00;0.62;0.00;0.00;0.62;6.73;6.13;;;30.70;37.30;;;;;;2218341;62;20465;-67
2021/07/13 11:49:58;0.00;0.00;0.62;0.00;0.00;0.62;8.17;7.57;;;30.70;37.20;;;;;;2218132;62;20365;-63
2021/07/13 11:52:27;0.00;0.00;0.62;0.00;0.00;0.62;7.53;6.93;;;30.70;37.00;;;;;;2218595;62;20371;-60
2021/07/13 11:54:56;0.00;0.00;0.62;0.00;0.00;0.62;8.50;7.80;;;30.80;37.10;;;;;;2218335;62;20373;-65
2021/07/13 11:57:22;0.00;0.00;0.62;0.00;0.00;0.62;7.43;6.80;;;30.80;37.00;;;;;;2217915;62;20408;-66
2021/07/13 11:59:49;0.00;0.00;0.62;0.00;0.00;0.62;8.03;7.40;;;30.80;37.10;;;;;;2218647;62;20369;-64
2021/07/13 12:02:15;0.00;0.00;0.62;0.00;0.00;0.62;7.70;7.03;;;30.80;37.10;;;;;;2217905;62;20440;-64
2021/07/13 12:04:44;0.00;0.00;0.62;0.00;0.00;0.62;7.13;6.53;;;30.80;37.00;;;;;;2218125;62;20405;-63
2021/07/13 12:07:11;0.00;0.00;0.62;0.00;0.00;0.62;8.00;7.40;;;30.80;36.90;;;;;;2218535;62;20472;-65
2021/07/13 12:09:40;0.00;0.00;0.62;0.00;0.00;0.62;8.07;7.37;;;30.80;36.90;;;;;;2218282;62;20577;-64
2021/07/13 12:12:09;0.00;0.00;0.62;0.00;0.00;0.62;8.50;7.83;;;30.80;36.90;;;;;;2218031;62;20376;-63
2021/07/13 12:14:38;0.00;0.00;0.62;0.00;0.00;0.62;8.40;7.63;;;30.80;37.00;;;;;;2218582;62;20456;-62
2021/07/13 12:17:06;0.00;0.00;0.62;0.00;0.00;0.62;8.03;7.33;;;30.80;37.10;;;;;;2218202;62;20429;-67
2021/07/13 12:19:34;0.00;0.00;0.62;0.00;0.00;0.62;8.60;7.90;;;30.90;36.90;;;;;;2218009;62;20422;-65
2021/07/13 12:22:04;0.00;0.00;0.62;0.00;0.00;0.62;8.87;8.07;;;30.90;36.80;;;;;;2218536;62;20372;-64
2021/07/13 12:24:33;0.00;0.00;0.62;0.00;0.00;0.62;8.70;8.00;;;30.90;36.80;;;;;;2218279;62;20360;-65
2021/07/13 12:27:04;0.00;0.00;0.62;0.00;0.00;0.62;8.90;8.07;;;30.90;36.80;;;;;;2217817;62;20388;-64
2021/07/13 12:29:36;0.00;0.00;0.62;0.00;0.00;0.62;9.00;8.30;;;30.90;36.80;;;;;;2218486;62;20369;-64
2021/07/13 12:32:06;0.00;0.00;0.62;0.00;0.00;0.62;8.83;8.13;;;30.90;36.80;;;;;;2218237;62;20365;-64
2021/07/13 12:34:39;0.00;0.00;0.62;0.00;0.00;0.62;8.00;7.40;;;30.90;36.70;;;;;;2217586;62;20373;-64
2021/07/13 12:37:13;0.00;0.00;0.62;0.00;0.00;0.62;8.03;7.43;;;30.90;36.70;;;;;;2216748;62;20736;-65
2021/07/13 12:39:42;0.00;0.00;0.62;0.00;0.00;0.62;7.90;7.27;;;30.90;36.70;;;;;;2214211;62;20420;-64
2021/07/13 12:42:16;0.00;0.00;0.62;0.00;0.00;0.62;8.03;7.43;;;30.90;36.70;;;;;;2214156;62;20665;-62
2021/07/13 12:44:48;0.00;0.00;0.62;0.00;0.00;0.62;8.03;7.43;;;30.90;36.60;;;;;;2220222;62;20362;-62
2021/07/13 12:47:28;0.00;0.00;0.62;0.00;0.00;0.62;8.43;7.73;;;30.90;36.70;;;;;;2214668;62;20397;-64
2021/07/13 12:50:08;0.00;0.00;0.62;0.00;0.00;0.62;8.37;7.67;;;30.90;36.50;;;;;;2214088;62;20366;-65
2021/07/13 12:52:37;0.00;0.00;0.62;0.00;0.00;0.62;7.10;6.60;;;30.90;36.50;;;;;;2214220;62;20373;-62
2021/07/13 12:55:08;0.00;0.00;0.62;0.00;0.00;0.62;8.10;7.50;;;30.90;36.40;;;;;;2214511;62;20365;-65
2021/07/13 12:57:39;0.00;0.00;0.62;0.00;0.00;0.62;8.30;7.60;;;30.90;37.00;;;;;;2214046;62;20396;-64
2021/07/13 13:00:15;0.00;0.00;0.62;0.00;0.00;0.62;8.37;7.67;;;30.90;36.40;;;;;;2214328;62;20376;-64
2021/07/13 13:02:43;0.00;0.00;0.62;0.00;0.00;0.62;7.97;7.37;;;30.90;36.40;;;;;;2214659;62;20458;-63
2021/07/13 13:05:24;0.00;0.00;0.62;0.00;0.00;0.62;8.73;8.03;;;30.90;36.30;;;;;;2214069;62;20369;-63
2021/07/13 13:08:04;0.00;0.00;0.62;0.00;0.00;0.62;9.00;7.13;;;30.90;36.40;;;;;;2214205;62;20397;-64
2021/07/13 13:10:32;0.00;0.00;0.62;0.00;0.00;0.62;7.67;7.03;;;30.90;36.40;;;;;;2214431;62;20372;-63
2021/07/13 13:13:00;0.00;0.00;0.62;0.00;0.00;0.62;8.53;7.83;;;30.90;36.40;;;;;;2214318;62;20411;-61
2021/07/13 13:15:28;0.00;0.00;0.62;0.00;0.00;0.62;7.97;7.37;;;31.00;36.50;;;;;;2214183;62;20366;-62
2021/07/13 13:17:57;0.00;0.00;0.62;0.00;0.00;0.62;7.83;7.23;;;31.00;36.50;;;;;;2214179;62;20389;-62
2021/07/13 13:20:24;0.00;0.00;0.62;0.00;0.00;0.62;7.70;7.00;;;30.90;36.40;;;;;;2214497;62;20365;-65
2021/07/13 13:22:54;0.00;0.00;0.62;0.00;0.00;0.62;7.87;7.27;;;30.90;36.30;;;;;;2214224;62;20369;-65
2021/07/13 13:25:22;0.00;0.00;0.62;0.00;0.00;0.62;7.43;6.83;;;31.00;36.40;;;;;;2214225;62;20361;-61
2021/07/13 13:27:49;0.00;0.00;0.62;0.00;0.00;0.62;7.47;6.87;;;31.00;36.40;;;;;;2214280;62;20382;-63
2021/07/13 13:30:17;0.00;0.00;0.62;0.00;0.00;0.62;7.83;7.23;;;31.00;36.40;;;;;;2214178;62;20720;-62
2021/07/13 13:32:44;0.00;0.00;0.62;0.00;0.00;0.62;7.00;6.40;;;31.00;36.30;;;;;;2214147;62;20368;-63
2021/07/13 13:35:18;0.00;0.00;0.62;0.00;0.00;0.62;7.93;7.20;;;31.00;36.10;;;;;;2214245;62;20362;-63
2021/07/13 13:38:01;0.00;0.00;0.62;0.00;0.00;0.62;7.93;7.33;;;31.00;36.00;;;;;;2214046;62;20401;-62
2021/07/13 13:40:27;0.00;0.00;0.62;0.00;0.00;0.62;7.30;6.70;;;31.00;36.00;;;;;;2214686;62;20365;-63
2021/07/13 13:42:54;0.00;0.00;0.62;0.00;0.00;0.62;7.67;7.07;;;31.10;35.90;;;;;;2214992;62;20585;-66
2021/07/13 13:45:22;0.00;0.00;0.62;0.00;0.00;0.62;8.00;6.90;;;31.10;36.00;;;;;;2214863;62;20370;-63
2021/07/13 13:47:48;0.00;0.00;0.62;0.00;0.00;0.62;8.30;7.57;;;31.10;35.90;;;;;;2214698;62;20377;-64
2021/07/13 13:50:15;0.00;0.00;0.62;0.00;0.00;0.62;8.17;7.43;;;31.10;35.80;;;;;;2214988;62;20366;-66
2021/07/13 13:52:41;0.00;0.00;0.62;0.00;0.00;0.62;8.13;7.40;;;31.10;35.70;;;;;;2214852;62;20401;-63
2021/07/13 13:55:09;0.00;0.00;0.62;0.00;0.00;0.62;7.47;6.87;;;31.10;35.80;;;;;;2211043;62;20361;-63
2021/07/13 13:57:36;0.00;0.00;0.62;0.00;0.00;0.62;8.33;7.73;;;31.10;35.70;;;;;;2211363;62;20601;-62
2021/07/13 14:00:06;0.00;0.00;0.62;0.00;0.00;0.62;8.33;7.70;;;31.10;35.80;;;;;;2214846;62;20361;-61
2021/07/13 14:02:35;0.00;0.00;0.62;0.00;0.00;0.62;8.10;7.50;;;31.10;35.80;;;;;;2214765;62;20741;-66
2021/07/13 14:05:02;0.00;0.00;0.62;0.00;0.00;0.62;7.60;7.00;;;31.10;35.80;;;;;;2214982;62;20613;-64
2021/07/13 14:07:29;0.00;0.00;0.62;0.00;0.00;0.62;7.33;6.73;;;31.10;35.90;;;;;;2214743;62;20385;-62
2021/07/13 14:09:55;0.00;0.00;0.62;0.00;0.00;0.62;8.17;7.57;;;31.10;35.70;;;;;;2214695;62;20457;-64
2021/07/13 14:12:21;0.00;0.00;0.62;0.00;0.00;0.62;9.07;8.37;;;31.10;35.70;;;;;;2214859;62;20369;-62
2021/07/13 14:14:48;0.00;0.00;0.62;0.00;0.00;0.62;8.00;7.30;;;31.10;35.80;;;;;;2214757;62;20441;-62
2021/07/13 14:17:14;0.00;0.00;0.62;0.00;0.00;0.62;8.33;7.63;;;31.10;35.80;;;;;;2214695;62;20385;-63
2021/07/13 14:19:42;0.00;0.00;0.62;0.00;0.00;0.62;7.87;7.27;;;31.10;35.80;;;;;;2214888;62;20442;-65
2021/07/13 14:22:09;0.00;0.00;0.62;0.00;0.00;0.62;7.90;7.30;;;31.20;35.80;;;;;;2214686;62;20370;-65
2021/07/13 14:24:36;0.00;0.00;0.62;0.00;0.00;0.62;8.27;7.67;;;31.10;35.70;;;;;;2214685;62;20372;-63
2021/07/13 14:27:03;0.00;0.00;0.62;0.00;0.00;0.62;8.13;7.50;;;31.10;35.80;;;;;;2211195;62;20389;-62
2021/07/13 14:29:30;0.00;0.00;0.62;0.00;0.00;0.62;7.90;7.30;;;31.10;35.80;;;;;;2214724;62;20362;-64
2021/07/13 14:31:57;0.00;0.00;0.62;0.00;0.00;0.62;8.63;7.93;;;31.10;35.90;;;;;;2214765;62;20362;-63
2021/07/13 14:34:23;0.00;0.00;0.62;0.00;0.00;0.62;8.40;7.63;;;31.10;35.90;;;;;;2214801;62;20602;-65
2021/07/13 14:36:51;0.00;0.00;0.62;0.00;0.00;0.62;8.13;7.53;;;31.10;35.80;;;;;;2214389;62;20389;-65
2021/07/13 14:39:17;0.00;0.00;0.62;0.00;0.00;0.62;8.23;7.53;;;31.10;35.90;;;;;;2214762;62;20393;-63
2021/07/13 14:41:44;0.00;0.00;0.62;0.00;0.00;0.62;8.90;8.20;;;31.10;35.90;;;;;;2214887;62;20487;-64
2021/07/13 14:44:10;0.00;0.00;0.62;0.00;0.00;0.62;7.70;7.10;;;31.10;35.70;;;;;;2214736;62;20453;-64
2021/07/13 14:46:38;0.00;0.00;0.62;0.00;0.00;0.62;7.90;7.30;;;31.10;35.80;;;;;;2214575;62;20382;-65
2021/07/13 14:49:04;0.00;0.00;0.62;0.00;0.00;0.62;7.93;7.23;;;31.10;35.80;;;;;;2214857;62;20389;-60
2021/07/13 14:51:31;0.00;0.00;0.62;0.00;0.00;0.62;8.97;8.27;;;31.10;35.80;;;;;;2214400;62;20431;-63
2021/07/13 14:53:58;0.00;0.00;0.62;0.00;0.00;0.62;8.67;7.97;;;31.10;35.70;;;;;;2214718;62;20369;-65
2021/07/13 14:56:25;0.00;0.00;0.62;0.00;0.00;0.62;8.53;7.73;;;31.00;35.40;;;;;;2211056;62;20390;-61
2021/07/13 14:58:51;0.00;0.00;0.62;0.00;0.00;0.62;7.20;6.70;;;31.00;35.20;;;;;;2214505;62;20397;-63
2021/07/13 15:01:18;0.00;0.00;0.62;0.00;0.00;0.62;7.20;6.60;;;31.00;35.30;;;;;;2215095;62;20366;-64
2021/07/13 15:03:46;0.00;0.00;0.62;0.00;0.00;0.62;7.43;6.87;;;31.00;35.30;;;;;;2214634;62;20493;-63
2021/07/13 15:06:13;0.00;0.00;0.62;0.00;0.00;0.62;7.03;6.53;;;31.00;35.40;;;;;;2214508;62;20579;-64
2021/07/13 15:08:40;0.00;0.00;0.62;0.00;0.00;0.62;8.20;7.50;;;31.00;35.40;;;;;;2214597;62;20375;-60
2021/07/13 15:11:08;0.00;0.00;0.62;0.00;0.00;0.62;7.27;6.73;;;30.90;35.50;;;;;;2214413;62;20312;-64
2021/07/13 15:13:34;0.00;0.00;0.62;0.00;0.00;0.62;7.20;6.50;;;31.00;35.50;;;;;;2214583;62;20377;-64
2021/07/13 15:16:01;0.00;0.00;0.62;0.00;0.00;0.62;5.87;5.47;;;31.00;35.50;;;;;;2214780;62;20450;-64
2021/07/13 15:18:27;0.00;0.00;0.62;0.00;0.00;0.62;6.03;5.63;;;30.90;35.50;;;;;;2214357;62;20640;-66
2021/07/13 15:20:53;0.00;0.00;0.62;0.00;0.00;0.62;6.30;5.80;;;31.00;35.60;;;;;;2214525;62;20362;-65
2021/07/13 15:23:20;0.00;0.00;0.62;0.00;0.00;0.62;5.93;5.43;;;31.00;35.70;;;;;;2214914;62;20362;-63
2021/07/13 15:25:46;0.00;0.00;0.62;0.00;0.00;0.62;7.03;6.53;;;31.00;35.70;;;;;;2214230;62;20518;-61
2021/07/13 15:28:14;0.00;0.00;0.62;0.00;0.00;0.62;6.40;5.80;;;31.00;35.60;;;;;;2210870;62;20434;-62